Terminal Aerodrome Forecast
Issued by NWS

Home | Current Version | Previous Version | Text Only | Print | Product List | Glossary On
Versions: 1 2 3 4 5 6 7 8 9 10 11 12 13 14 15 16 17 18 19 20 21 22 23 24 25 26 27 28 29 30 31 32 33 34 35 36 37 38 39 40 41 42 43 44 45 46 47 48 49 50
000
FTUS45 KBOU 012326
TAFBJC
TAF
KBJC 012326Z 0200/0224 VRB03KT P6SM BKN025 OVC080
     FM020200 33005KT P6SM VCSH SCT020 OVC080
      TEMPO 0202/0206 4SM -SN BR OVC018
     FM021100 33007KT 5SM BR SCT005 BKN018
      TEMPO 0212/0216 2SM BR BKN005
     FM021800 34006KT P6SM SCT015 SCT080 BKN200
     FM022100 36006KT P6SM FEW080 BKN200=

USA.gov is the U.S. government's official web portal to all federal, state and local government web resources and services.